createdAt,value
2022-08-17T17:20:50.746Z,21.70
2022-08-17T17:23:17.515Z,21.70
2022-08-17T17:25:47.068Z,21.80
2022-08-17T17:28:15.908Z,21.80
2022-08-17T17:30:42.705Z,21.80
2022-08-17T17:33:09.491Z,21.80
2022-08-17T17:35:36.475Z,21.80
2022-08-17T17:38:03.195Z,21.70
2022-08-17T17:40:29.910Z,21.70
2022-08-17T17:43:02.298Z,21.70
2022-08-17T17:45:36.137Z,21.60
2022-08-17T17:48:02.818Z,21.60
2022-08-17T17:50:29.614Z,21.50
2022-08-17T17:52:56.439Z,21.50
2022-08-17T17:55:23.355Z,21.40
2022-08-17T17:57:50.367Z,21.40
2022-08-17T18:00:17.274Z,21.40
2022-08-17T18:02:47.340Z,21.40
2022-08-17T18:05:19.125Z,21.50
2022-08-17T18:07:46.541Z,21.60
2022-08-17T18:10:29.533Z,21.50
2022-08-17T18:12:56.749Z,21.50
2022-08-17T18:15:23.659Z,21.40
2022-08-17T18:17:51.006Z,21.40
2022-08-17T18:20:20.218Z,21.50
2022-08-17T18:23:02.722Z,21.40
2022-08-17T18:25:29.432Z,21.40
2022-08-17T18:27:56.193Z,21.40
2022-08-17T18:30:22.894Z,21.40
2022-08-17T18:32:49.670Z,21.30
2022-08-17T18:35:16.381Z,21.30
2022-08-17T18:37:43.245Z,21.30
2022-08-17T18:40:10.022Z,21.30
2022-08-17T18:42:38.760Z,21.20
2022-08-17T18:45:05.517Z,21.20
2022-08-17T18:47:32.646Z,21.10
2022-08-17T18:49:59.332Z,21.10
2022-08-17T18:52:27.910Z,21.10
2022-08-17T18:54:54.607Z,21.00
2022-08-17T18:57:21.562Z,21.00
2022-08-17T18:59:48.645Z,21.00
2022-08-17T19:02:23.123Z,21.00
2022-08-17T19:04:53.306Z,21.00
2022-08-17T19:07:20.022Z,21.00
2022-08-17T19:09:47.129Z,20.90
2022-08-17T19:12:13.839Z,20.90
2022-08-17T19:14:40.558Z,20.90
2022-08-17T19:17:07.383Z,20.80
2022-08-17T19:19:34.196Z,20.80
2022-08-17T19:22:00.886Z,20.80
2022-08-17T19:24:27.640Z,20.70
2022-08-17T19:26:56.433Z,20.80
2022-08-17T19:29:23.755Z,20.80
2022-08-17T19:31:50.613Z,20.80
2022-08-17T19:34:17.457Z,20.80
2022-08-17T19:36:59.979Z,20.70
2022-08-17T19:39:26.891Z,20.70
2022-08-17T19:42:05.339Z,20.70
2022-08-17T19:44:32.356Z,20.70
2022-08-17T19:47:00.886Z,20.70
2022-08-17T19:49:40.561Z,20.60
2022-08-17T19:52:08.273Z,20.60
2022-08-17T19:54:35.820Z,20.60
2022-08-17T19:57:02.806Z,20.60
2022-08-17T19:59:29.608Z,20.60
2022-08-17T20:02:03.345Z,20.60
2022-08-17T20:04:31.779Z,20.60
2022-08-17T20:06:59.478Z,20.60
2022-08-17T20:09:29.673Z,20.60
2022-08-17T20:12:00.641Z,20.70
2022-08-17T20:14:27.394Z,20.70
2022-08-17T20:16:54.161Z,20.60
2022-08-17T20:19:20.916Z,20.70
2022-08-17T20:21:47.763Z,20.70
2022-08-17T20:24:14.436Z,20.60
2022-08-17T20:26:41.186Z,20.60
2022-08-17T20:29:40.374Z,20.60
2022-08-17T20:32:07.446Z,20.50
2022-08-17T20:34:36.953Z,20.50
2022-08-17T20:37:04.662Z,20.40
2022-08-17T20:39:36.169Z,20.40
2022-08-17T20:42:02.937Z,20.30
2022-08-17T20:44:29.712Z,20.20
2022-08-17T20:46:56.579Z,20.20
2022-08-17T20:49:23.290Z,20.20
2022-08-17T20:51:54.656Z,20.10
2022-08-17T20:54:28.815Z,20.10
2022-08-17T20:56:57.732Z,20.10
2022-08-17T20:59:25.754Z,20.10
2022-08-17T21:01:53.042Z,20.10
2022-08-17T21:04:20.165Z,20.00
2022-08-17T21:06:46.877Z,20.10
2022-08-17T21:09:13.665Z,20.10
2022-08-17T21:12:02.398Z,20.10
